sensor_id;sensor_type;location;lat;lon;timestamp;pressure;altitude;pressure_sealevel;temperature;humidity
23953;BME280;12163;49.316;6.092;2022-10-19T00:01:09;100410.91;;;15.91;94.59
23953;BME280;12163;49.316;6.092;2022-10-19T00:03:37;100402.47;;;15.93;95.26
23953;BME280;12163;49.316;6.092;2022-10-19T00:06:28;100405.47;;;15.91;94.70
23953;BME280;12163;49.316;6.092;2022-10-19T00:09:05;100413.03;;;15.94;95.00
23953;BME280;12163;49.316;6.092;2022-10-19T00:11:33;100410.31;;;15.94;94.59
23953;BME280;12163;49.316;6.092;2022-10-19T00:14:00;100411.41;;;15.93;94.18
23953;BME280;12163;49.316;6.092;2022-10-19T00:16:31;100413.63;;;15.91;94.69
23953;BME280;12163;49.316;6.092;2022-10-19T00:19:00;100415.34;;;15.87;93.77
23953;BME280;12163;49.316;6.092;2022-10-19T00:21:27;100413.72;;;15.86;93.42
23953;BME280;12163;49.316;6.092;2022-10-19T00:23:54;100408.06;;;15.83;93.61
23953;BME280;12163;49.316;6.092;2022-10-19T00:26:20;100405.75;;;15.76;93.27
23953;BME280;12163;49.316;6.092;2022-10-19T00:28:48;100406.03;;;15.75;93.90
23953;BME280;12163;49.316;6.092;2022-10-19T00:31:16;100398.97;;;15.74;93.35
23953;BME280;12163;49.316;6.092;2022-10-19T00:33:44;100401.38;;;15.75;93.16
23953;BME280;12163;49.316;6.092;2022-10-19T00:36:20;100396.25;;;15.74;93.19
23953;BME280;12163;49.316;6.092;2022-10-19T00:38:47;100401.38;;;15.75;93.26
23953;BME280;12163;49.316;6.092;2022-10-19T00:41:15;100396.16;;;15.79;93.43
23953;BME280;12163;49.316;6.092;2022-10-19T00:43:51;100396.75;;;15.76;93.62
23953;BME280;12163;49.316;6.092;2022-10-19T00:46:18;100395.38;;;15.78;93.36
23953;BME280;12163;49.316;6.092;2022-10-19T00:48:44;100395.16;;;15.75;92.51
23953;BME280;12163;49.316;6.092;2022-10-19T00:51:11;100396.53;;;15.72;92.17
23953;BME280;12163;49.316;6.092;2022-10-19T00:53:39;100400.19;;;15.68;92.45
23953;BME280;12163;49.316;6.092;2022-10-19T00:56:10;100397.84;;;15.61;91.68
23953;BME280;12163;49.316;6.092;2022-10-19T00:58:38;100403.94;;;15.53;91.86
23953;BME280;12163;49.316;6.092;2022-10-19T01:01:08;100396.44;;;15.45;91.59
23953;BME280;12163;49.316;6.092;2022-10-19T01:03:37;100404.69;;;15.40;91.88
23953;BME280;12163;49.316;6.092;2022-10-19T01:06:05;100395.81;;;15.35;91.87
23953;BME280;12163;49.316;6.092;2022-10-19T01:08:31;100394.50;;;15.32;91.57
23953;BME280;12163;49.316;6.092;2022-10-19T01:22:48;100378.97;;;15.15;92.57
23953;BME280;12163;49.316;6.092;2022-10-19T01:41:59;100369.91;;;15.19;92.59
23953;BME280;12163;49.316;6.092;2022-10-19T01:47:22;100355.53;;;15.18;92.44
23953;BME280;12163;49.316;6.092;2022-10-19T01:49:54;100351.41;;;15.21;92.92
23953;BME280;12163;49.316;6.092;2022-10-19T01:52:23;100347.28;;;15.23;92.54
23953;BME280;12163;49.316;6.092;2022-10-19T01:54:53;100348.91;;;15.24;92.66
23953;BME280;12163;49.316;6.092;2022-10-19T01:57:29;100342.34;;;15.25;92.58
23953;BME280;12163;49.316;6.092;2022-10-19T01:59:58;100348.84;;;15.29;92.66
23953;BME280;12163;49.316;6.092;2022-10-19T02:02:30;100343.63;;;15.33;92.52
23953;BME280;12163;49.316;6.092;2022-10-19T02:04:57;100330.53;;;15.35;92.51
23953;BME280;12163;49.316;6.092;2022-10-19T02:07:24;100340.81;;;15.38;92.51
23953;BME280;12163;49.316;6.092;2022-10-19T02:09:51;100331.78;;;15.42;92.12
23953;BME280;12163;49.316;6.092;2022-10-19T02:12:19;100329.06;;;15.42;92.22
23953;BME280;12163;49.316;6.092;2022-10-19T02:14:49;100326.56;;;15.46;92.13
23953;BME280;12163;49.316;6.092;2022-10-19T02:17:22;100334.91;;;15.49;92.33
23953;BME280;12163;49.316;6.092;2022-10-19T02:19:51;100320.91;;;15.42;92.27
23953;BME280;12163;49.316;6.092;2022-10-19T02:22:18;100328.97;;;15.47;91.79
23953;BME280;12163;49.316;6.092;2022-10-19T02:24:44;100328.97;;;15.47;91.38
23953;BME280;12163;49.316;6.092;2022-10-19T02:27:11;100325.72;;;15.45;91.51
23953;BME280;12163;49.316;6.092;2022-10-19T02:29:38;100325.72;;;15.45;91.09
23953;BME280;12163;49.316;6.092;2022-10-19T02:32:06;100319.50;;;15.45;91.31
23953;BME280;12163;49.316;6.092;2022-10-19T02:34:34;100319.69;;;15.48;91.55
23953;BME280;12163;49.316;6.092;2022-10-19T02:37:01;100315.06;;;15.49;91.19
23953;BME280;12163;49.316;6.092;2022-10-19T02:39:27;100313.66;;;15.51;91.13
23953;BME280;12163;49.316;6.092;2022-10-19T02:42:06;100322.72;;;15.47;90.92
23953;BME280;12163;49.316;6.092;2022-10-19T02:44:57;100307.28;;;15.42;90.54
23953;BME280;12163;49.316;6.092;2022-10-19T02:47:32;100305.69;;;15.41;90.81
23953;BME280;12163;49.316;6.092;2022-10-19T02:50:06;100299.72;;;15.39;90.45
23953;BME280;12163;49.316;6.092;2022-10-19T02:52:36;100299.50;;;15.36;89.71
23953;BME280;12163;49.316;6.092;2022-10-19T02:55:03;100295.78;;;15.32;90.62
23953;BME280;12163;49.316;6.092;2022-10-19T02:57:30;100295.03;;;15.26;90.04
23953;BME280;12163;49.316;6.092;2022-10-19T02:59:58;100290.50;;;15.22;90.56
23953;BME280;12163;49.316;6.092;2022-10-19T03:02:25;100283.72;;;15.19;89.84
23953;BME280;12163;49.316;6.092;2022-10-19T03:04:51;100290.28;;;15.18;89.99
23953;BME280;12163;49.316;6.092;2022-10-19T03:07:20;100283.72;;;15.19;90.73
23953;BME280;12163;49.316;6.092;2022-10-19T03:09:48;100279.91;;;15.20;90.72
23953;BME280;12163;49.316;6.092;2022-10-19T03:12:15;100285.84;;;15.22;90.32
23953;BME280;12163;49.316;6.092;2022-10-19T03:14:42;100283.63;;;15.24;90.08
23953;BME280;12163;49.316;6.092;2022-10-19T03:17:09;100287.47;;;15.23;90.35
23953;BME280;12163;49.316;6.092;2022-10-19T03:19:35;100286.34;;;15.24;90.16
23953;BME280;12163;49.316;6.092;2022-10-19T03:22:02;100290.78;;;15.20;89.58
23953;BME280;12163;49.316;6.092;2022-10-19T03:24:30;100281.59;;;15.17;89.87
23953;BME280;12163;49.316;6.092;2022-10-19T03:26:56;100288.75;;;15.13;89.85
23953;BME280;12163;49.316;6.092;2022-10-19T03:29:23;100284.41;;;15.12;90.15
23953;BME280;12163;49.316;6.092;2022-10-19T03:31:50;100274.66;;;15.11;90.02
23953;BME280;12163;49.316;6.092;2022-10-19T03:34:16;100262.94;;;15.10;90.31
23953;BME280;12163;49.316;6.092;2022-10-19T03:36:43;100265.38;;;15.12;90.31
23953;BME280;12163;49.316;6.092;2022-10-19T03:39:13;100270.81;;;15.12;90.31
23953;BME280;12163;49.316;6.092;2022-10-19T03:41:40;100283.31;;;15.13;90.23
23953;BME280;12163;49.316;6.092;2022-10-19T03:44:08;100277.06;;;15.12;90.20
23953;BME280;12163;49.316;6.092;2022-10-19T03:46:36;100277.28;;;15.16;90.31
23953;BME280;12163;49.316;6.092;2022-10-19T03:49:03;100276.75;;;15.14;90.16
23953;BME280;12163;49.316;6.092;2022-10-19T03:51:31;100281.19;;;15.10;89.61
23953;BME280;12163;49.316;6.092;2022-10-19T03:54:02;100281.75;;;15.07;89.83
23953;BME280;12163;49.316;6.092;2022-10-19T03:56:29;100278.91;;;14.98;90.13
23953;BME280;12163;49.316;6.092;2022-10-19T03:58:58;100282.34;;;15.04;90.14
23953;BME280;12163;49.316;6.092;2022-10-19T04:01:28;100279.34;;;15.05;90.04
23953;BME280;12163;49.316;6.092;2022-10-19T04:03:58;100285.06;;;15.04;90.10
23953;BME280;12163;49.316;6.092;2022-10-19T04:06:28;100278.63;;;15.00;89.90
23953;BME280;12163;49.316;6.092;2022-10-19T04:08:55;100277.50;;;15.01;90.16
23953;BME280;12163;49.316;6.092;2022-10-19T04:11:26;100277.00;;;14.99;90.30
23953;BME280;12163;49.316;6.092;2022-10-19T04:13:53;100284.56;;;15.02;90.09
23953;BME280;12163;49.316;6.092;2022-10-19T04:16:22;100288.88;;;15.03;90.21
23953;BME280;12163;49.316;6.092;2022-10-19T04:18:50;100291.00;;;15.06;90.51
23953;BME280;12163;49.316;6.092;2022-10-19T04:23:59;100287.13;;;15.12;90.63
23953;BME280;12163;49.316;6.092;2022-10-19T04:26:27;100288.16;;;15.16;90.24
23953;BME280;12163;49.316;6.092;2022-10-19T04:28:56;100288.16;;;15.16;89.97
23953;BME280;12163;49.316;6.092;2022-10-19T04:31:24;100288.16;;;15.16;90.24
23953;BME280;12163;49.316;6.092;2022-10-19T04:33:51;100283.22;;;15.18;90.17
23953;BME280;12163;49.316;6.092;2022-10-19T04:36:17;100277.47;;;15.19;89.91
23953;BME280;12163;49.316;6.092;2022-10-19T04:38:44;100279.41;;;15.18;89.62
23953;BME280;12163;49.316;6.092;2022-10-19T04:41:13;100280.00;;;15.16;89.65
23953;BME280;12163;49.316;6.092;2022-10-19T04:43:40;100276.75;;;15.14;89.33
23953;BME280;12163;49.316;6.092;2022-10-19T04:46:09;100282.25;;;15.09;89.39
23953;BME280;12163;49.316;6.092;2022-10-19T04:48:37;100281.69;;;15.12;89.71
23953;BME280;12163;49.316;6.092;2022-10-19T04:51:04;100278.38;;;15.15;89.56
23953;BME280;12163;49.316;6.092;2022-10-19T04:53:31;100276.69;;;15.18;89.52
23953;BME280;12163;49.316;6.092;2022-10-19T04:55:58;100264.47;;;15.34;90.26
23953;BME280;12163;49.316;6.092;2022-10-19T04:58:26;100276.81;;;15.72;90.48
23953;BME280;12163;49.316;6.092;2022-10-19T05:00:52;100267.56;;;16.00;89.48
23953;BME280;12163;49.316;6.092;2022-10-19T05:03:19;100259.38;;;16.27;87.90
23953;BME280;12163;49.316;6.092;2022-10-19T05:05:45;100262.78;;;16.46;87.35
23953;BME280;12163;49.316;6.092;2022-10-19T05:08:12;100258.50;;;16.67;86.64
23953;BME280;12163;49.316;6.092;2022-10-19T05:10:39;100263.56;;;16.82;85.70
23953;BME280;12163;49.316;6.092;2022-10-19T05:13:10;100263.97;;;16.89;84.03
23953;BME280;12163;49.316;6.092;2022-10-19T05:15:37;100262.31;;;17.01;83.45
23953;BME280;12163;49.316;6.092;2022-10-19T05:18:04;100262.25;;;17.15;81.45
23953;BME280;12163;49.316;6.092;2022-10-19T05:20:30;100261.25;;;17.11;81.24
23953;BME280;12163;49.316;6.092;2022-10-19T05:22:57;100261.47;;;17.01;81.38
23953;BME280;12163;49.316;6.092;2022-10-19T05:25:25;100264.97;;;16.93;81.51
23953;BME280;12163;49.316;6.092;2022-10-19T05:27:52;100261.13;;;16.94;81.99
23953;BME280;12163;49.316;6.092;2022-10-19T05:30:19;100258.88;;;16.96;80.88
23953;BME280;12163;49.316;6.092;2022-10-19T05:32:47;100259.50;;;16.93;80.84
23953;BME280;12163;49.316;6.092;2022-10-19T05:35:14;100255.03;;;16.97;80.43
23953;BME280;12163;49.316;6.092;2022-10-19T05:37:46;100242.88;;;17.03;79.37
23953;BME280;12163;49.316;6.092;2022-10-19T05:40:13;100250.34;;;17.11;78.73
23953;BME280;12163;49.316;6.092;2022-10-19T05:42:39;100243.16;;;17.15;78.53
23953;BME280;12163;49.316;6.092;2022-10-19T05:45:06;100255.41;;;17.26;78.79
23953;BME280;12163;49.316;6.092;2022-10-19T05:47:33;100251.16;;;17.33;78.75
23953;BME280;12163;49.316;6.092;2022-10-19T05:50:00;100242.53;;;17.40;78.03
23953;BME280;12163;49.316;6.092;2022-10-19T05:52:27;100232.25;;;17.37;77.47
23953;BME280;12163;49.316;6.092;2022-10-19T05:54:54;100236.69;;;17.33;77.76
23953;BME280;12163;49.316;6.092;2022-10-19T05:57:21;100235.88;;;17.32;78.04
23953;BME280;12163;49.316;6.092;2022-10-19T05:59:48;100242.72;;;17.30;77.39
23953;BME280;12163;49.316;6.092;2022-10-19T06:02:14;100235.06;;;17.32;77.85
23953;BME280;12163;49.316;6.092;2022-10-19T06:04:41;100227.81;;;17.27;77.87
23953;BME280;12163;49.316;6.092;2022-10-19T06:07:07;100226.38;;;17.30;77.04
23953;BME280;12163;49.316;6.092;2022-10-19T06:09:34;100233.44;;;17.31;77.73
23953;BME280;12163;49.316;6.092;2022-10-19T06:12:02;100229.19;;;17.38;76.64
23953;BME280;12163;49.316;6.092;2022-10-19T06:14:29;100232.53;;;17.35;76.30
23953;BME280;12163;49.316;6.092;2022-10-19T06:16:56;100223.22;;;17.14;76.44
23953;BME280;12163;49.316;6.092;2022-10-19T06:19:22;100228.22;;;16.91;76.84
23953;BME280;12163;49.316;6.092;2022-10-19T06:21:49;100235.59;;;16.68;77.85
23953;BME280;12163;49.316;6.092;2022-10-19T06:24:15;100230.78;;;16.52;78.94
23953;BME280;12163;49.316;6.092;2022-10-19T06:26:42;100234.34;;;16.39;79.68
23953;BME280;12163;49.316;6.092;2022-10-19T06:29:08;100234.34;;;16.25;80.46
23953;BME280;12163;49.316;6.092;2022-10-19T06:31:35;100236.66;;;16.18;81.12
23953;BME280;12163;49.316;6.092;2022-10-19T06:34:03;100242.53;;;16.12;81.56
23953;BME280;12163;49.316;6.092;2022-10-19T06:36:30;100245.34;;;16.07;82.06
23953;BME280;12163;49.316;6.092;2022-10-19T06:38:57;100246.78;;;16.04;82.01
23953;BME280;12163;49.316;6.092;2022-10-19T06:41:25;100247.41;;;16.01;82.55
23953;BME280;12163;49.316;6.092;2022-10-19T06:43:53;100251.53;;;15.99;82.40
23953;BME280;12163;49.316;6.092;2022-10-19T06:46:22;100248.28;;;15.97;82.88
23953;BME280;12163;49.316;6.092;2022-10-19T06:51:21;100242.03;;;15.96;83.33
23953;BME280;12163;49.316;6.092;2022-10-19T06:53:48;100239.91;;;15.93;83.59
23953;BME280;12163;49.316;6.092;2022-10-19T06:56:22;100241.03;;;15.92;83.83
23953;BME280;12163;49.316;6.092;2022-10-19T06:58:50;100237.69;;;15.95;83.74
23953;BME280;12163;49.316;6.092;2022-10-19T07:01:17;100232.25;;;15.95;84.38
23953;BME280;12163;49.316;6.092;2022-10-19T07:03:43;100247.19;;;15.98;84.47
23953;BME280;12163;49.316;6.092;2022-10-19T07:06:11;100243.06;;;16.00;84.52
23953;BME280;12163;49.316;6.092;2022-10-19T07:08:40;100244.47;;;15.98;84.19
23953;BME280;12163;49.316;6.092;2022-10-19T07:11:10;100248.59;;;15.95;84.43
23953;BME280;12163;49.316;6.092;2022-10-19T07:13:37;100254.34;;;15.94;84.35
23953;BME280;12163;49.316;6.092;2022-10-19T07:16:06;100260.41;;;15.91;84.60
23953;BME280;12163;49.316;6.092;2022-10-19T07:18:34;100250.63;;;15.90;85.09
23953;BME280;12163;49.316;6.092;2022-10-19T07:21:04;100259.91;;;15.89;85.10
23953;BME280;12163;49.316;6.092;2022-10-19T07:23:32;100255.25;;;15.89;85.67
23953;BME280;12163;49.316;6.092;2022-10-19T07:26:06;100250.41;;;15.86;85.38
23953;BME280;12163;49.316;6.092;2022-10-19T07:28:33;100245.25;;;15.85;85.09
23953;BME280;12163;49.316;6.092;2022-10-19T07:31:05;100245.59;;;15.83;85.61
23953;BME280;12163;49.316;6.092;2022-10-19T07:33:32;100248.81;;;15.85;85.36
23953;BME280;12163;49.316;6.092;2022-10-19T07:36:01;100247.19;;;15.84;85.81
23953;BME280;12163;49.316;6.092;2022-10-19T07:38:29;100237.09;;;15.85;85.38
23953;BME280;12163;49.316;6.092;2022-10-19T07:41:13;100247.19;;;15.84;85.86
23953;BME280;12163;49.316;6.092;2022-10-19T07:43:41;100234.09;;;15.86;85.64
23953;BME280;12163;49.316;6.092;2022-10-19T07:46:14;100240.31;;;15.87;86.10
23953;BME280;12163;49.316;6.092;2022-10-19T07:48:41;100235.69;;;15.87;85.76
23953;BME280;12163;49.316;6.092;2022-10-19T07:51:09;100238.91;;;15.89;85.60
23953;BME280;12163;49.316;6.092;2022-10-19T07:53:37;100240.75;;;15.94;85.47
23953;BME280;12163;49.316;6.092;2022-10-19T07:56:18;100241.34;;;15.91;85.10
23953;BME280;12163;49.316;6.092;2022-10-19T07:58:45;100241.97;;;15.88;85.15
23953;BME280;12163;49.316;6.092;2022-10-19T08:01:15;100250.41;;;15.86;85.84
23953;BME280;12163;49.316;6.092;2022-10-19T08:03:43;100238.91;;;15.89;85.77
23953;BME280;12163;49.316;6.092;2022-10-19T08:06:29;100235.91;;;15.91;85.87
23953;BME280;12163;49.316;6.092;2022-10-19T08:08:57;100238.63;;;15.91;85.54
23953;BME280;12163;49.316;6.092;2022-10-19T08:11:26;100238.91;;;15.89;85.90
23953;BME280;12163;49.316;6.092;2022-10-19T08:13:54;100232.38;;;15.90;85.66
23953;BME280;12163;49.316;6.092;2022-10-19T08:16:36;100216.16;;;15.85;85.67
23953;BME280;12163;49.316;6.092;2022-10-19T08:19:12;100218.03;;;15.85;85.91
23953;BME280;12163;49.316;6.092;2022-10-19T08:21:41;100219.38;;;15.87;86.38
23953;BME280;12163;49.316;6.092;2022-10-19T08:24:09;100210.91;;;15.89;85.88
23953;BME280;12163;49.316;6.092;2022-10-19T08:26:37;100223.19;;;15.86;86.39
23953;BME280;12163;49.316;6.092;2022-10-19T08:29:06;100221.59;;;15.85;86.56
23953;BME280;12163;49.316;6.092;2022-10-19T08:31:34;100212.31;;;15.86;86.14
23953;BME280;12163;49.316;6.092;2022-10-19T08:34:02;100207.66;;;15.87;86.38
23953;BME280;12163;49.316;6.092;2022-10-19T08:36:28;100197.59;;;15.87;87.32
23953;BME280;12163;49.316;6.092;2022-10-19T08:38:57;100195.38;;;15.89;86.93
23953;BME280;12163;49.316;6.092;2022-10-19T08:46:57;100196.56;;;15.97;87.29
23953;BME280;12163;49.316;6.092;2022-10-19T08:49:32;100187.69;;;16.05;86.82
23953;BME280;12163;49.316;6.092;2022-10-19T08:52:15;100198.16;;;16.11;86.69
23953;BME280;12163;49.316;6.092;2022-10-19T08:54:50;100196.31;;;16.20;86.63
23953;BME280;12163;49.316;6.092;2022-10-19T09:00:26;100196.41;;;16.29;86.41
23953;BME280;12163;49.316;6.092;2022-10-19T09:03:12;100192.50;;;16.35;86.36
23953;BME280;12163;49.316;6.092;2022-10-19T09:08:46;100186.00;;;16.44;85.60
23953;BME280;12163;49.316;6.092;2022-10-19T09:11:14;100182.53;;;16.52;86.02
23953;BME280;12163;49.316;6.092;2022-10-19T09:13:46;100188.38;;;16.59;85.49
23953;BME280;12163;49.316;6.092;2022-10-19T09:16:30;100187.16;;;16.65;85.27
23953;BME280;12163;49.316;6.092;2022-10-19T09:18:57;100177.22;;;16.69;85.37
23953;BME280;12163;49.316;6.092;2022-10-19T09:21:43;100181.56;;;16.70;85.02
23953;BME280;12163;49.316;6.092;2022-10-19T09:27:32;100179.34;;;16.72;85.34
23953;BME280;12163;49.316;6.092;2022-10-19T09:30:09;100174.75;;;16.81;84.63
23953;BME280;12163;49.316;6.092;2022-10-19T09:32:40;100176.84;;;16.84;84.09
23953;BME280;12163;49.316;6.092;2022-10-19T09:35:35;100173.13;;;16.80;84.31
23953;BME280;12163;49.316;6.092;2022-10-19T09:38:06;100178.56;;;16.80;83.90
23953;BME280;12163;49.316;6.092;2022-10-19T09:40:33;100169.91;;;16.78;84.38
23953;BME280;12163;49.316;6.092;2022-10-19T09:43:00;100169.28;;;16.81;84.74
23953;BME280;12163;49.316;6.092;2022-10-19T09:45:49;100164.94;;;16.80;84.73
23953;BME280;12163;49.316;6.092;2022-10-19T09:48:22;100161.44;;;16.80;84.46
23953;BME280;12163;49.316;6.092;2022-10-19T09:50:55;100160.63;;;16.79;84.67
23953;BME280;12163;49.316;6.092;2022-10-19T09:53:23;100161.72;;;16.78;84.04
23953;BME280;12163;49.316;6.092;2022-10-19T09:55:57;100167.19;;;16.78;84.43
23953;BME280;12163;49.316;6.092;2022-10-19T09:58:28;100170.09;;;16.82;84.19
23953;BME280;12163;49.316;6.092;2022-10-19T10:00:59;100165.63;;;16.86;84.48
23953;BME280;12163;49.316;6.092;2022-10-19T10:05:55;100161.97;;;16.90;84.39
23953;BME280;12163;49.316;6.092;2022-10-19T10:08:26;100164.72;;;16.90;84.33
23953;BME280;12163;49.316;6.092;2022-10-19T10:11:21;100163.25;;;16.92;84.31
23953;BME280;12163;49.316;6.092;2022-10-19T10:13:51;100156.25;;;17.00;83.88
23953;BME280;12163;49.316;6.092;2022-10-19T10:16:20;100167.50;;;17.07;84.14
23953;BME280;12163;49.316;6.092;2022-10-19T10:18:57;100164.06;;;17.15;83.97
23953;BME280;12163;49.316;6.092;2022-10-19T10:21:30;100160.19;;;17.16;83.06
23953;BME280;12163;49.316;6.092;2022-10-19T10:26:38;100155.72;;;17.20;83.19
23953;BME280;12163;49.316;6.092;2022-10-19T10:29:22;100146.72;;;17.19;82.50
23953;BME280;12163;49.316;6.092;2022-10-19T10:32:11;100148.66;;;17.19;82.56
23953;BME280;12163;49.316;6.092;2022-10-19T10:37:41;100142.13;;;17.28;82.34
23953;BME280;12163;49.316;6.092;2022-10-19T10:40:25;100137.66;;;17.32;82.34
23953;BME280;12163;49.316;6.092;2022-10-19T10:42:55;100129.84;;;17.39;81.60
23953;BME280;12163;49.316;6.092;2022-10-19T10:45:35;100124.88;;;17.41;81.10
23953;BME280;12163;49.316;6.092;2022-10-19T10:48:36;100120.03;;;17.38;81.05
23953;BME280;12163;49.316;6.092;2022-10-19T10:51:17;100114.59;;;17.38;80.93
23953;BME280;12163;49.316;6.092;2022-10-19T10:53:45;100113.16;;;17.41;80.52
23953;BME280;12163;49.316;6.092;2022-10-19T10:56:26;100107.72;;;17.41;80.93
23953;BME280;12163;49.316;6.092;2022-10-19T10:58:58;100104.69;;;17.42;80.53
23953;BME280;12163;49.316;6.092;2022-10-19T11:01:30;100096.34;;;17.47;80.25
23953;BME280;12163;49.316;6.092;2022-10-19T11:04:05;100109.00;;;17.52;80.90
23953;BME280;12163;49.316;6.092;2022-10-19T11:06:38;100108.88;;;17.57;80.05
23953;BME280;12163;49.316;6.092;2022-10-19T11:11:45;100107.91;;;17.61;79.57
23953;BME280;12163;49.316;6.092;2022-10-19T11:17:06;100098.63;;;17.71;79.28
23953;BME280;12163;49.316;6.092;2022-10-19T11:19:35;100090.78;;;17.78;79.46
23953;BME280;12163;49.316;6.092;2022-10-19T11:30:36;100057.88;;;17.91;78.08
23953;BME280;12163;49.316;6.092;2022-10-19T11:36:29;100050.66;;;18.04;77.10
23953;BME280;12163;49.316;6.092;2022-10-19T11:39:59;100050.66;;;18.04;76.96
23953;BME280;12163;49.316;6.092;2022-10-19T11:42:00;100048.22;;;18.11;76.94
23953;BME280;12163;49.316;6.092;2022-10-19T11:48:03;100027.97;;;18.37;76.51
23953;BME280;12163;49.316;6.092;2022-10-19T11:54:04;100016.00;;;18.67;75.87
23953;BME280;12163;49.316;6.092;2022-10-19T11:56:49;100019.00;;;18.82;75.59
23953;BME280;12163;49.316;6.092;2022-10-19T12:05:25;100009.09;;;19.07;73.54
23953;BME280;12163;49.316;6.092;2022-10-19T12:11:00;99991.84;;;19.06;74.20
23953;BME280;12163;49.316;6.092;2022-10-19T12:13:39;99990.56;;;19.12;74.01
23953;BME280;12163;49.316;6.092;2022-10-19T12:16:07;99985.38;;;19.19;72.70
23953;BME280;12163;49.316;6.092;2022-10-19T12:18:39;99980.56;;;19.16;72.67
23953;BME280;12163;49.316;6.092;2022-10-19T12:21:13;99983.94;;;19.13;73.59
23953;BME280;12163;49.316;6.092;2022-10-19T12:23:43;99976.72;;;19.17;73.16
23953;BME280;12163;49.316;6.092;2022-10-19T12:26:17;99968.44;;;19.26;73.44
23953;BME280;12163;49.316;6.092;2022-10-19T12:28:52;99957.78;;;19.33;73.08
23953;BME280;12163;49.316;6.092;2022-10-19T12:31:25;99955.38;;;19.31;72.47
23953;BME280;12163;49.316;6.092;2022-10-19T12:42:17;99945.47;;;19.39;72.64
23953;BME280;12163;49.316;6.092;2022-10-19T12:45:15;99944.69;;;19.38;72.25
23953;BME280;12163;49.316;6.092;2022-10-19T12:56:04;99921.84;;;19.55;72.13
23953;BME280;12163;49.316;6.092;2022-10-19T12:58:58;99922.94;;;19.62;71.94
23953;BME280;12163;49.316;6.092;2022-10-19T13:04:06;99916.09;;;19.68;71.17
23953;BME280;12163;49.316;6.092;2022-10-19T13:06:37;99911.16;;;19.82;71.17
23953;BME280;12163;49.316;6.092;2022-10-19T13:09:07;99914.00;;;20.06;70.81
23953;BME280;12163;49.316;6.092;2022-10-19T13:11:35;99906.72;;;20.22;69.88
23953;BME280;12163;49.316;6.092;2022-10-19T13:17:07;99896.13;;;20.68;68.69
23953;BME280;12163;49.316;6.092;2022-10-19T13:19:35;99892.38;;;20.85;67.49
23953;BME280;12163;49.316;6.092;2022-10-19T13:22:24;99880.75;;;20.88;66.67
23953;BME280;12163;49.316;6.092;2022-10-19T13:25:30;99877.53;;;20.86;67.12
23953;BME280;12163;49.316;6.092;2022-10-19T13:38:31;99872.69;;;20.35;67.88
23953;BME280;12163;49.316;6.092;2022-10-19T13:43:48;99870.09;;;20.39;67.65
23953;BME280;12163;49.316;6.092;2022-10-19T13:51:44;99862.88;;;20.22;68.37
23953;BME280;12163;49.316;6.092;2022-10-19T13:59:58;99860.94;;;20.47;68.17
23953;BME280;12163;49.316;6.092;2022-10-19T14:02:35;99849.41;;;20.53;67.65
23953;BME280;12163;49.316;6.092;2022-10-19T14:11:02;99835.72;;;20.65;67.24
23953;BME280;12163;49.316;6.092;2022-10-19T14:13:30;99830.22;;;20.65;67.74
23953;BME280;12163;49.316;6.092;2022-10-19T14:15:58;99837.97;;;20.75;67.55
23953;BME280;12163;49.316;6.092;2022-10-19T14:18:31;99836.94;;;20.79;67.46
23953;BME280;12163;49.316;6.092;2022-10-19T14:21:03;99838.66;;;20.84;67.07
23953;BME280;12163;49.316;6.092;2022-10-19T14:23:33;99849.06;;;20.90;66.95
23953;BME280;12163;49.316;6.092;2022-10-19T14:26:43;99836.59;;;20.93;66.75
23953;BME280;12163;49.316;6.092;2022-10-19T14:28:54;99842.78;;;20.90;66.37
23953;BME280;12163;49.316;6.092;2022-10-19T14:31:23;99847.78;;;20.76;66.81
23953;BME280;12163;49.316;6.092;2022-10-19T14:33:52;99846.19;;;20.75;66.75
23953;BME280;12163;49.316;6.092;2022-10-19T14:36:24;99843.47;;;20.75;66.87
23953;BME280;12163;49.316;6.092;2022-10-19T14:38:54;99837.41;;;20.69;66.81
23953;BME280;12163;49.316;6.092;2022-10-19T14:43:58;99824.03;;;20.68;66.68
23953;BME280;12163;49.316;6.092;2022-10-19T14:46:28;99825.13;;;21.03;67.06
23953;BME280;12163;49.316;6.092;2022-10-19T14:49:04;99819.34;;;21.32;65.80
23953;BME280;12163;49.316;6.092;2022-10-19T14:51:53;99804.41;;;21.45;65.02
23953;BME280;12163;49.316;6.092;2022-10-19T14:54:34;99808.00;;;21.61;64.59
23953;BME280;12163;49.316;6.092;2022-10-19T14:57:14;99799.06;;;21.64;64.18
23953;BME280;12163;49.316;6.092;2022-10-19T14:59:43;99801.25;;;21.58;64.14
23953;BME280;12163;49.316;6.092;2022-10-19T15:02:33;99790.81;;;21.36;64.52
23953;BME280;12163;49.316;6.092;2022-10-19T15:05:03;99787.34;;;21.24;64.08
23953;BME280;12163;49.316;6.092;2022-10-19T15:07:38;99803.41;;;21.10;64.14
23953;BME280;12163;49.316;6.092;2022-10-19T15:10:28;99794.19;;;20.90;64.85
23953;BME280;12163;49.316;6.092;2022-10-19T15:13:03;99785.66;;;20.68;65.46
23953;BME280;12163;49.316;6.092;2022-10-19T15:15:33;99790.22;;;20.52;66.01
23953;BME280;12163;49.316;6.092;2022-10-19T15:20:34;99781.81;;;20.21;67.10
23953;BME280;12163;49.316;6.092;2022-10-19T15:23:40;99785.91;;;20.03;67.29
23953;BME280;12163;49.316;6.092;2022-10-19T15:28:44;99793.03;;;19.84;68.26
23953;BME280;12163;49.316;6.092;2022-10-19T15:31:17;99786.53;;;19.76;68.98
23953;BME280;12163;49.316;6.092;2022-10-19T15:33:53;99785.03;;;19.67;69.08
23953;BME280;12163;49.316;6.092;2022-10-19T15:36:21;99788.09;;;19.65;69.43
23953;BME280;12163;49.316;6.092;2022-10-19T15:39:02;99782.94;;;19.64;69.38
23953;BME280;12163;49.316;6.092;2022-10-19T15:41:50;99781.31;;;19.51;69.04
23953;BME280;12163;49.316;6.092;2022-10-19T15:44:32;99782.09;;;19.39;69.42
23953;BME280;12163;49.316;6.092;2022-10-19T15:47:17;99776.38;;;19.32;69.65